Time;durP1;ratioP1;P1;durP2;ratioP2;P2;SDS_P1;SDS_P2;PMS_P1;PMS_P2;Temp;Humidity;BMP_temperature;BMP_pressure;BME280_temperature;BME280_humidity;BME280_pressure;Samples;Min_cycle;Max_cycle;Signal;HPM_P1;HPM_P2
2023/07/18 00:01:04;;;;;;;;;;;;;;;;;;5055191;28;19921;-61
2023/07/18 00:03:32;;;;;;;;;;;;;;;;;;5023008;28;19920;-60
2023/07/18 00:06:00;;;;;;;;;;;;;;;;;;5022354;28;19921;-61
2023/07/18 00:08:26;;;;;;;;;;;;;;;;;;5055590;28;19927;-61
2023/07/18 00:10:54;;;;;;;;;;;;;;;;;;5023268;28;20436;-60
2023/07/18 00:13:20;;;;;;;;;;;;;;;;;;5055025;28;19929;-61
2023/07/18 00:15:46;;;;;;;;;;;;;;;;;;5050858;28;20027;-60
2023/07/18 00:18:12;;;;;;;;;;;;;;;;;;5053780;28;19979;-61
2023/07/18 00:20:37;;;;;;;;;;;;;;;;;;5038137;28;20349;-61
2023/07/18 00:23:06;;;;;;;;;;;;;;;;;;5013532;28;19931;-61
2023/07/18 00:25:33;;;;;;;;;;;;;;;;;;5037964;28;19921;-61
2023/07/18 00:27:59;;;;;;;;;;;;;;;;;;5023134;28;19921;-61
2023/07/18 00:30:24;;;;;;;;;;;;;;;;;;5021522;28;19952;-61
2023/07/18 00:32:52;;;;;;;;;;;;;;;;;;5022084;28;20004;-60
2023/07/18 00:35:20;;;;;;;;;;;;;;;;;;5054057;28;19928;-61
2023/07/18 00:37:46;;;;;;;;;;;;;;;;;;5029350;28;19921;-61
2023/07/18 00:40:11;;;;;;;;;;;;;;;;;;5038153;28;20051;-61
2023/07/18 00:42:36;;;;;;;;;;;;;;;;;;5039249;28;19921;-61
2023/07/18 00:45:01;;;;;;;;;;;;;;;;;;5041403;28;20366;-61
2023/07/18 00:47:29;;;;;;;;;;;;;;;;;;5032040;28;19921;-61
2023/07/18 00:49:54;;;;;;;;;;;;;;;;;;5042613;28;19920;-60
2023/07/18 00:52:21;;;;;;;;;;;;;;;;;;5062826;28;19917;-61
2023/07/18 00:54:46;;;;;;;;;;;;;;;;;;5030213;28;21785;-60
2023/07/18 00:57:11;;;;;;;;;;;;;;;;;;5044503;28;19928;-60
2023/07/18 00:59:36;;;;;;;;;;;;;;;;;;5017229;28;20575;-60
2023/07/18 01:02:05;;;;;;;;;;;;;;;;;;5033820;28;20400;-61
2023/07/18 01:04:30;;;;;;;;;;;;;;;;;;5060127;28;19917;-61
2023/07/18 01:06:59;;;;;;;;;;;;;;;;;;5043739;28;19947;-61
2023/07/18 01:09:24;;;;;;;;;;;;;;;;;;5041507;28;19917;-60
2023/07/18 01:11:50;;;;;;;;;;;;;;;;;;5059931;28;20910;-60
2023/07/18 01:14:17;;;;;;;;;;;;;;;;;;5056823;28;19924;-60
2023/07/18 01:16:43;;;;;;;;;;;;;;;;;;5030999;28;19916;-60
2023/07/18 01:19:08;;;;;;;;;;;;;;;;;;5057720;28;19966;-60
2023/07/18 01:21:33;;;;;;;;;;;;;;;;;;5039752;28;19920;-61
2023/07/18 01:23:58;;;;;;;;;;;;;;;;;;5025932;28;19921;-60
2023/07/18 01:26:26;;;;;;;;;;;;;;;;;;5026099;28;19920;-60
2023/07/18 01:28:57;;;;;;;;;;;;;;;;;;5055578;28;20612;-60
2023/07/18 01:31:23;;;;;;;;;;;;;;;;;;5016281;28;19925;-60
2023/07/18 01:33:50;;;;;;;;;;;;;;;;;;5039634;28;20039;-60
2023/07/18 01:36:22;;;;;;;;;;;;;;;;;;5056764;28;19925;-62
2023/07/18 01:38:47;;;;;;;;;;;;;;;;;;5025658;28;21852;-61
2023/07/18 01:41:12;;;;;;;;;;;;;;;;;;5026850;28;19925;-61
2023/07/18 01:43:38;;;;;;;;;;;;;;;;;;5027050;28;20641;-61
2023/07/18 01:46:03;;;;;;;;;;;;;;;;;;5057432;28;20581;-61
2023/07/18 01:48:29;;;;;;;;;;;;;;;;;;5058067;28;19921;-60
2023/07/18 01:50:54;;;;;;;;;;;;;;;;;;5041696;28;19932;-62
2023/07/18 01:53:22;;;;;;;;;;;;;;;;;;5027342;28;19917;-60
2023/07/18 01:55:47;;;;;;;;;;;;;;;;;;5015766;28;19917;-62
2023/07/18 01:58:15;;;;;;;;;;;;;;;;;;5040429;28;19966;-60
2023/07/18 02:00:41;;;;;;;;;;;;;;;;;;5024700;28;19921;-60
2023/07/18 02:03:08;;;;;;;;;;;;;;;;;;5030414;28;20340;-61
2023/07/18 02:05:34;;;;;;;;;;;;;;;;;;5040108;28;19917;-62
2023/07/18 02:07:59;;;;;;;;;;;;;;;;;;5058517;28;19948;-61
2023/07/18 02:10:24;;;;;;;;;;;;;;;;;;5026977;28;21143;-59
2023/07/18 02:12:50;;;;;;;;;;;;;;;;;;5033065;28;19926;-60
2023/07/18 02:15:17;;;;;;;;;;;;;;;;;;5028948;28;19917;-60
2023/07/18 02:17:43;;;;;;;;;;;;;;;;;;5025312;28;19935;-61
2023/07/18 02:20:11;;;;;;;;;;;;;;;;;;5037790;28;19959;-61
2023/07/18 02:22:37;;;;;;;;;;;;;;;;;;5038196;28;20004;-62
2023/07/18 02:25:02;;;;;;;;;;;;;;;;;;5055347;28;20019;-60
2023/07/18 02:27:27;;;;;;;;;;;;;;;;;;5055919;28;19917;-61
2023/07/18 02:29:53;;;;;;;;;;;;;;;;;;5023869;28;20304;-61
2023/07/18 02:32:18;;;;;;;;;;;;;;;;;;5024836;28;19925;-61
2023/07/18 02:34:46;;;;;;;;;;;;;;;;;;5036060;28;19917;-60
2023/07/18 02:37:11;;;;;;;;;;;;;;;;;;5024876;28;19917;-61
2023/07/18 02:39:38;;;;;;;;;;;;;;;;;;5039142;28;20026;-61
2023/07/18 02:42:08;;;;;;;;;;;;;;;;;;5024414;28;20476;-61
2023/07/18 02:44:34;;;;;;;;;;;;;;;;;;5055248;28;19921;-61
2023/07/18 02:47:02;;;;;;;;;;;;;;;;;;5011153;28;19931;-61
2023/07/18 02:49:28;;;;;;;;;;;;;;;;;;5054491;28;19921;-59
2023/07/18 02:51:53;;;;;;;;;;;;;;;;;;5056411;28;20783;-60
2023/07/18 02:54:19;;;;;;;;;;;;;;;;;;5054733;28;19920;-60
2023/07/18 02:56:44;;;;;;;;;;;;;;;;;;5024287;28;19917;-61
2023/07/18 02:59:10;;;;;;;;;;;;;;;;;;5037773;28;20376;-60
2023/07/18 03:01:35;;;;;;;;;;;;;;;;;;5023784;28;20023;-60
2023/07/18 03:04:03;;;;;;;;;;;;;;;;;;5053259;28;20039;-61
2023/07/18 03:06:31;;;;;;;;;;;;;;;;;;5038338;28;20256;-60
2023/07/18 03:08:57;;;;;;;;;;;;;;;;;;5055398;28;19920;-60
2023/07/18 03:11:22;;;;;;;;;;;;;;;;;;5055427;28;19927;-60
2023/07/18 03:13:47;;;;;;;;;;;;;;;;;;5028623;28;19921;-60
2023/07/18 03:16:13;;;;;;;;;;;;;;;;;;5023978;28;20011;-62
2023/07/18 03:18:39;;;;;;;;;;;;;;;;;;5038950;28;20564;-61
2023/07/18 03:21:07;;;;;;;;;;;;;;;;;;5035714;28;20026;-61
2023/07/18 03:23:32;;;;;;;;;;;;;;;;;;5023817;28;20881;-61
2023/07/18 03:26:03;;;;;;;;;;;;;;;;;;5055600;28;19924;-61
2023/07/18 03:28:28;;;;;;;;;;;;;;;;;;5039020;28;19921;-62
2023/07/18 03:30:53;;;;;;;;;;;;;;;;;;5054591;28;19917;-61
2023/07/18 03:33:24;;;;;;;;;;;;;;;;;;5054387;28;19928;-61
2023/07/18 03:35:50;;;;;;;;;;;;;;;;;;5022229;28;19921;-61
2023/07/18 03:38:15;;;;;;;;;;;;;;;;;;5023378;28;21838;-61
2023/07/18 03:40:44;;;;;;;;;;;;;;;;;;5038911;28;19929;-61
2023/07/18 03:43:09;;;;;;;;;;;;;;;;;;5054621;28;20475;-61
2023/07/18 03:45:34;;;;;;;;;;;;;;;;;;5036742;28;20921;-61
2023/07/18 03:48:02;;;;;;;;;;;;;;;;;;5055361;28;19928;-61
2023/07/18 03:50:30;;;;;;;;;;;;;;;;;;5013985;28;19924;-61
2023/07/18 03:52:55;;;;;;;;;;;;;;;;;;5024499;28;19921;-60
2023/07/18 03:55:26;;;;;;;;;;;;;;;;;;5038488;28;20380;-60
2023/07/18 03:57:52;;;;;;;;;;;;;;;;;;5057453;28;19952;-61
2023/07/18 04:00:22;;;;;;;;;;;;;;;;;;5054493;28;21815;-61
2023/07/18 04:02:50;;;;;;;;;;;;;;;;;;5023977;28;20047;-61
2023/07/18 04:05:19;;;;;;;;;;;;;;;;;;5056401;28;20567;-61
2023/07/18 04:07:47;;;;;;;;;;;;;;;;;;5024475;28;19920;-61
2023/07/18 04:10:15;;;;;;;;;;;;;;;;;;5039547;28;19966;-61
2023/07/18 04:12:42;;;;;;;;;;;;;;;;;;5055994;28;19922;-61
2023/07/18 04:15:08;;;;;;;;;;;;;;;;;;5027081;28;19986;-61
2023/07/18 04:17:38;;;;;;;;;;;;;;;;;;5040088;28;19932;-61
2023/07/18 04:20:07;;;;;;;;;;;;;;;;;;5042116;28;19932;-61
2023/07/18 04:22:35;;;;;;;;;;;;;;;;;;5017565;28;19917;-60
2023/07/18 04:25:02;;;;;;;;;;;;;;;;;;5058678;28;19921;-61
2023/07/18 04:27:27;;;;;;;;;;;;;;;;;;5042896;28;20292;-61
2023/07/18 04:29:53;;;;;;;;;;;;;;;;;;5041677;28;19928;-61
2023/07/18 04:32:24;;;;;;;;;;;;;;;;;;5057584;28;20110;-61
2023/07/18 04:34:52;;;;;;;;;;;;;;;;;;5058285;28;19924;-61
2023/07/18 04:37:17;;;;;;;;;;;;;;;;;;5031175;28;20454;-62
2023/07/18 04:39:42;;;;;;;;;;;;;;;;;;5027196;28;19920;-61
2023/07/18 04:42:07;;;;;;;;;;;;;;;;;;5059788;28;20024;-61
2023/07/18 04:44:33;;;;;;;;;;;;;;;;;;5025710;28;19920;-61
2023/07/18 04:47:01;;;;;;;;;;;;;;;;;;5042348;28;21947;-61
2023/07/18 04:49:27;;;;;;;;;;;;;;;;;;5026499;28;19923;-61
2023/07/18 04:51:58;;;;;;;;;;;;;;;;;;5042298;28;19927;-61
2023/07/18 04:54:26;;;;;;;;;;;;;;;;;;5038189;28;19917;-62
2023/07/18 04:56:53;;;;;;;;;;;;;;;;;;5302372;22;19934;-64
2023/07/18 04:59:19;;;;;;;;;;;;;;;;;;5009352;28;19917;-65
2023/07/18 05:01:44;;;;;;;;;;;;;;;;;;5009210;28;20387;-64
2023/07/18 05:04:09;;;;;;;;;;;;;;;;;;4994820;28;19955;-65
2023/07/18 05:06:34;;;;;;;;;;;;;;;;;;5008524;28;20008;-66
2023/07/18 05:09:00;;;;;;;;;;;;;;;;;;5004124;28;19935;-65
2023/07/18 05:11:28;;;;;;;;;;;;;;;;;;5008832;28;19921;-66
2023/07/18 05:13:56;;;;;;;;;;;;;;;;;;5003007;28;22189;-65
2023/07/18 05:16:21;;;;;;;;;;;;;;;;;;5000788;28;19918;-66
2023/07/18 05:18:49;;;;;;;;;;;;;;;;;;5009390;28;21938;-66
2023/07/18 05:21:14;;;;;;;;;;;;;;;;;;5035607;28;19935;-66
2023/07/18 05:23:39;;;;;;;;;;;;;;;;;;5005748;28;19917;-65
2023/07/18 05:26:07;;;;;;;;;;;;;;;;;;5024697;28;21813;-66
2023/07/18 05:28:35;;;;;;;;;;;;;;;;;;5010328;28;19928;-65
2023/07/18 05:31:02;;;;;;;;;;;;;;;;;;5017885;28;19921;-66
2023/07/18 05:33:28;;;;;;;;;;;;;;;;;;5009001;28;20443;-66
2023/07/18 05:35:55;;;;;;;;;;;;;;;;;;5007892;28;20000;-66
2023/07/18 05:38:24;;;;;;;;;;;;;;;;;;5018607;28;19967;-66
2023/07/18 05:40:52;;;;;;;;;;;;;;;;;;5034479;28;19921;-66
2023/07/18 05:43:21;;;;;;;;;;;;;;;;;;5041354;28;19960;-65
2023/07/18 05:45:46;;;;;;;;;;;;;;;;;;5002256;28;19964;-68
2023/07/18 05:48:11;;;;;;;;;;;;;;;;;;5009759;28;20414;-67
2023/07/18 05:50:39;;;;;;;;;;;;;;;;;;5001625;28;20040;-66
2023/07/18 05:53:05;;;;;;;;;;;;;;;;;;5035490;28;19918;-66
2023/07/18 05:55:36;;;;;;;;;;;;;;;;;;5009182;28;19927;-67
2023/07/18 05:58:04;;;;;;;;;;;;;;;;;;5018932;28;19929;-66
2023/07/18 06:00:30;;;;;;;;;;;;;;;;;;5007574;28;20064;-67
2023/07/18 06:02:55;;;;;;;;;;;;;;;;;;5009279;28;20870;-68
2023/07/18 06:05:20;;;;;;;;;;;;;;;;;;4990877;28;19917;-67
2023/07/18 06:07:48;;;;;;;;;;;;;;;;;;5007036;28;19921;-66
2023/07/18 06:10:13;;;;;;;;;;;;;;;;;;5004628;28;19921;-67
2023/07/18 06:12:39;;;;;;;;;;;;;;;;;;5005687;28;19917;-68
2023/07/18 06:15:04;;;;;;;;;;;;;;;;;;4992676;28;19951;-67
2023/07/18 06:17:35;;;;;;;;;;;;;;;;;;5008304;28;19928;-68
2023/07/18 06:20:00;;;;;;;;;;;;;;;;;;5005837;28;19921;-68
2023/07/18 06:22:26;;;;;;;;;;;;;;;;;;5006561;28;19921;-67
2023/07/18 06:24:53;;;;;;;;;;;;;;;;;;5006800;28;19937;-68
2023/07/18 06:27:19;;;;;;;;;;;;;;;;;;5006287;28;20499;-68
2023/07/18 06:29:44;;;;;;;;;;;;;;;;;;5008297;28;20007;-67
2023/07/18 06:32:13;;;;;;;;;;;;;;;;;;4989333;28;19918;-68
2023/07/18 06:34:40;;;;;;;;;;;;;;;;;;4989196;28;19968;-67
2023/07/18 06:37:08;;;;;;;;;;;;;;;;;;5007401;28;19947;-68
2023/07/18 06:39:34;;;;;;;;;;;;;;;;;;5001009;28;19947;-67
2023/07/18 06:41:59;;;;;;;;;;;;;;;;;;5009012;28;20786;-69
2023/07/18 06:44:27;;;;;;;;;;;;;;;;;;4999915;28;21333;-69
2023/07/18 06:46:55;;;;;;;;;;;;;;;;;;5006406;28;19923;-67
2023/07/18 06:49:21;;;;;;;;;;;;;;;;;;5009114;28;20078;-68
2023/07/18 06:51:47;;;;;;;;;;;;;;;;;;5001508;28;19917;-69
2023/07/18 06:54:18;;;;;;;;;;;;;;;;;;5002001;28;19921;-70
2023/07/18 06:56:45;;;;;;;;;;;;;;;;;;4993609;28;19928;-71
2023/07/18 06:59:13;;;;;;;;;;;;;;;;;;5001185;28;20441;-70
2023/07/18 07:01:40;;;;;;;;;;;;;;;;;;4990162;28;19928;-69
2023/07/18 07:04:05;;;;;;;;;;;;;;;;;;4993040;28;19921;-67
2023/07/18 07:06:33;;;;;;;;;;;;;;;;;;4985578;28;19921;-68
2023/07/18 07:09:01;;;;;;;;;;;;;;;;;;5010005;28;19928;-68
2023/07/18 07:11:29;;;;;;;;;;;;;;;;;;4991009;28;20020;-69
2023/07/18 07:13:55;;;;;;;;;;;;;;;;;;5001438;28;19921;-69
2023/07/18 07:16:20;;;;;;;;;;;;;;;;;;4987451;28;20352;-69
2023/07/18 07:18:49;;;;;;;;;;;;;;;;;;5008407;28;20485;-68
2023/07/18 07:21:17;;;;;;;;;;;;;;;;;;4984468;28;19932;-68
2023/07/18 07:23:44;;;;;;;;;;;;;;;;;;5008103;28;19979;-69
2023/07/18 07:26:10;;;;;;;;;;;;;;;;;;5009634;28;19960;-69
2023/07/18 07:28:38;;;;;;;;;;;;;;;;;;4988066;28;19972;-70
2023/07/18 07:31:04;;;;;;;;;;;;;;;;;;5006976;28;19933;-71
2023/07/18 07:33:29;;;;;;;;;;;;;;;;;;5005285;28;19921;-68
2023/07/18 07:35:55;;;;;;;;;;;;;;;;;;4990605;28;19948;-69
2023/07/18 07:38:23;;;;;;;;;;;;;;;;;;5001550;28;20470;-70
2023/07/18 07:40:49;;;;;;;;;;;;;;;;;;5000082;28;20019;-71
2023/07/18 07:43:14;;;;;;;;;;;;;;;;;;4983600;28;20423;-72
2023/07/18 07:45:39;;;;;;;;;;;;;;;;;;4988330;28;19923;-69
2023/07/18 07:48:05;;;;;;;;;;;;;;;;;;4992946;28;19921;-71
2023/07/18 07:50:33;;;;;;;;;;;;;;;;;;5000757;28;19968;-68
2023/07/18 07:52:58;;;;;;;;;;;;;;;;;;5004636;28;20055;-69
2023/07/18 07:55:24;;;;;;;;;;;;;;;;;;5000028;28;19921;-70
2023/07/18 07:57:49;;;;;;;;;;;;;;;;;;5003930;28;19964;-69
2023/07/18 08:00:15;;;;;;;;;;;;;;;;;;4986294;28;19932;-70
2023/07/18 08:02:43;;;;;;;;;;;;;;;;;;5004977;28;20380;-70
2023/07/18 08:05:11;;;;;;;;;;;;;;;;;;4985605;28;19929;-68
2023/07/18 08:07:36;;;;;;;;;;;;;;;;;;4986270;28;20059;-71
2023/07/18 08:10:04;;;;;;;;;;;;;;;;;;5005563;28;19921;-68
2023/07/18 08:12:32;;;;;;;;;;;;;;;;;;5004970;28;19928;-69
2023/07/18 08:15:00;;;;;;;;;;;;;;;;;;4983992;28;19921;-68
2023/07/18 08:17:28;;;;;;;;;;;;;;;;;;5006199;28;19927;-68
2023/07/18 08:19:54;;;;;;;;;;;;;;;;;;4991768;28;21782;-69
2023/07/18 08:22:19;;;;;;;;;;;;;;;;;;4985226;28;20283;-69
2023/07/18 08:24:44;;;;;;;;;;;;;;;;;;5006267;28;20027;-69
2023/07/18 08:27:09;;;;;;;;;;;;;;;;;;4999501;28;19921;-68
2023/07/18 08:29:35;;;;;;;;;;;;;;;;;;5003376;28;20285;-70
2023/07/18 08:32:01;;;;;;;;;;;;;;;;;;5005286;28;20047;-69
2023/07/18 08:34:26;;;;;;;;;;;;;;;;;;5006507;28;20320;-68
2023/07/18 08:36:56;;;;;;;;;;;;;;;;;;4990307;28;19918;-68
2023/07/18 08:39:24;;;;;;;;;;;;;;;;;;4981860;28;19925;-70
2023/07/18 08:41:50;;;;;;;;;;;;;;;;;;4984894;28;19929;-72
2023/07/18 08:44:15;;;;;;;;;;;;;;;;;;5004457;28;19928;-70
2023/07/18 08:46:44;;;;;;;;;;;;;;;;;;4991910;28;20007;-70
2023/07/18 08:49:10;;;;;;;;;;;;;;;;;;5003189;28;20640;-70
2023/07/18 08:51:38;;;;;;;;;;;;;;;;;;5005773;28;20299;-71
2023/07/18 08:54:04;;;;;;;;;;;;;;;;;;4990811;28;19921;-70
2023/07/18 08:56:29;;;;;;;;;;;;;;;;;;4987746;28;19921;-70
2023/07/18 08:58:55;;;;;;;;;;;;;;;;;;4983696;28;19921;-71
2023/07/18 09:01:20;;;;;;;;;;;;;;;;;;5006904;28;19921;-67
2023/07/18 09:03:46;;;;;;;;;;;;;;;;;;4999107;28;20864;-69
2023/07/18 09:06:11;;;;;;;;;;;;;;;;;;5006948;28;19921;-70
2023/07/18 09:08:41;;;;;;;;;;;;;;;;;;5008769;28;19924;-68
2023/07/18 09:11:12;;;;;;;;;;;;;;;;;;5007871;28;19931;-71
2023/07/18 09:13:38;;;;;;;;;;;;;;;;;;5008316;28;20047;-69
2023/07/18 09:16:03;;;;;;;;;;;;;;;;;;5005690;28;19924;-68
2023/07/18 09:18:29;;;;;;;;;;;;;;;;;;5017570;28;21586;-69
2023/07/18 09:20:59;;;;;;;;;;;;;;;;;;5008417;28;19959;-67
2023/07/18 09:23:25;;;;;;;;;;;;;;;;;;5008699;28;19943;-70
2023/07/18 09:25:50;;;;;;;;;;;;;;;;;;5008856;28;20656;-70
2023/07/18 09:28:15;;;;;;;;;;;;;;;;;;5008455;28;20419;-70
2023/07/18 09:30:40;;;;;;;;;;;;;;;;;;5006645;28;21045;-69
2023/07/18 09:33:06;;;;;;;;;;;;;;;;;;5008209;28;19927;-72
2023/07/18 09:35:31;;;;;;;;;;;;;;;;;;5001077;28;19968;-70
2023/07/18 09:37:57;;;;;;;;;;;;;;;;;;5009413;28;20241;-74
2023/07/18 09:40:22;;;;;;;;;;;;;;;;;;5001384;28;19917;-69
2023/07/18 09:42:48;;;;;;;;;;;;;;;;;;4994330;28;20047;-72
2023/07/18 09:45:13;;;;;;;;;;;;;;;;;;5001620;28;19928;-71
2023/07/18 09:47:39;;;;;;;;;;;;;;;;;;4991285;28;19943;-70
2023/07/18 09:50:07;;;;;;;;;;;;;;;;;;5009157;28;19994;-70
2023/07/18 09:52:33;;;;;;;;;;;;;;;;;;5008499;28;21657;-69
2023/07/18 09:54:58;;;;;;;;;;;;;;;;;;5006158;28;19959;-70
2023/07/18 09:57:26;;;;;;;;;;;;;;;;;;5002410;28;19952;-69
2023/07/18 09:59:51;;;;;;;;;;;;;;;;;;5007591;28;19923;-69
2023/07/18 10:02:17;;;;;;;;;;;;;;;;;;4984080;28;19921;-67
2023/07/18 10:04:42;;;;;;;;;;;;;;;;;;5008978;28;19917;-69
2023/07/18 10:07:10;;;;;;;;;;;;;;;;;;4989499;28;20035;-71
2023/07/18 10:09:36;;;;;;;;;;;;;;;;;;4983519;28;19928;-74
2023/07/18 10:12:04;;;;;;;;;;;;;;;;;;5007177;28;19921;-70
2023/07/18 10:14:29;;;;;;;;;;;;;;;;;;5005547;28;19944;-71
2023/07/18 10:16:55;;;;;;;;;;;;;;;;;;4984953;28;19926;-71
2023/07/18 10:19:20;;;;;;;;;;;;;;;;;;5005906;28;19974;-70
2023/07/18 10:21:46;;;;;;;;;;;;;;;;;;5006718;28;19921;-70
2023/07/18 10:24:11;;;;;;;;;;;;;;;;;;5008683;28;19921;-71
2023/07/18 10:26:42;;;;;;;;;;;;;;;;;;5007677;28;19960;-71
2023/07/18 10:29:10;;;;;;;;;;;;;;;;;;4990137;28;19970;-71
2023/07/18 10:31:36;;;;;;;;;;;;;;;;;;5006358;28;19964;-70
2023/07/18 10:34:01;;;;;;;;;;;;;;;;;;5005902;28;20668;-71
2023/07/18 10:36:27;;;;;;;;;;;;;;;;;;5010648;28;19966;-71
2023/07/18 10:38:55;;;;;;;;;;;;;;;;;;5004378;28;20581;-70
2023/07/18 10:41:23;;;;;;;;;;;;;;;;;;5008930;28;19956;-70
2023/07/18 10:43:49;;;;;;;;;;;;;;;;;;5006761;28;20589;-70
2023/07/18 10:46:14;;;;;;;;;;;;;;;;;;5002748;28;19917;-71
2023/07/18 10:48:43;;;;;;;;;;;;;;;;;;4983031;28;19928;-70
2023/07/18 10:51:08;;;;;;;;;;;;;;;;;;5008876;28;19933;-70
2023/07/18 10:53:33;;;;;;;;;;;;;;;;;;5000639;28;19921;-71
2023/07/18 10:55:59;;;;;;;;;;;;;;;;;;5005786;28;20328;-70
2023/07/18 10:58:24;;;;;;;;;;;;;;;;;;5006842;28;20014;-69
2023/07/18 11:00:49;;;;;;;;;;;;;;;;;;5003980;28;19943;-71
2023/07/18 11:03:15;;;;;;;;;;;;;;;;;;5008282;28;19987;-72
2023/07/18 11:05:42;;;;;;;;;;;;;;;;;;5005560;28;19918;-71
2023/07/18 11:08:07;;;;;;;;;;;;;;;;;;5006007;28;19924;-72
2023/07/18 11:10:38;;;;;;;;;;;;;;;;;;5000089;28;19925;-72
2023/07/18 11:13:04;;;;;;;;;;;;;;;;;;5007459;28;20930;-72
2023/07/18 11:15:30;;;;;;;;;;;;;;;;;;4991551;28;19921;-71
2023/07/18 11:17:55;;;;;;;;;;;;;;;;;;5006041;28;19927;-70
2023/07/18 11:20:20;;;;;;;;;;;;;;;;;;5006173;28;19917;-71
2023/07/18 11:22:46;;;;;;;;;;;;;;;;;;5005619;28;19921;-73
2023/07/18 11:25:11;;;;;;;;;;;;;;;;;;4999599;28;19956;-73
2023/07/18 11:27:37;;;;;;;;;;;;;;;;;;4988220;28;20016;-70
2023/07/18 11:30:03;;;;;;;;;;;;;;;;;;5000638;28;19932;-72
2023/07/18 11:32:28;;;;;;;;;;;;;;;;;;5008781;28;20047;-69
2023/07/18 11:34:53;;;;;;;;;;;;;;;;;;5004779;28;19922;-70
2023/07/18 11:37:18;;;;;;;;;;;;;;;;;;5005794;28;20216;-70
2023/07/18 11:39:44;;;;;;;;;;;;;;;;;;5004361;28;19928;-70
2023/07/18 11:42:09;;;;;;;;;;;;;;;;;;4984512;28;19918;-73
2023/07/18 11:44:35;;;;;;;;;;;;;;;;;;5005442;28;19921;-69
2023/07/18 11:47:01;;;;;;;;;;;;;;;;;;5007161;28;20586;-69
2023/07/18 11:49:26;;;;;;;;;;;;;;;;;;5006218;28;19931;-70
2023/07/18 11:51:51;;;;;;;;;;;;;;;;;;5007916;28;19971;-70
2023/07/18 11:54:17;;;;;;;;;;;;;;;;;;5007150;28;21936;-75
2023/07/18 11:56:42;;;;;;;;;;;;;;;;;;4999019;28;20400;-75
2023/07/18 11:59:08;;;;;;;;;;;;;;;;;;5007532;28;19917;-76
2023/07/18 12:01:33;;;;;;;;;;;;;;;;;;5004614;28;19936;-74
2023/07/18 12:04:01;;;;;;;;;;;;;;;;;;5000454;28;19921;-75
2023/07/18 12:06:26;;;;;;;;;;;;;;;;;;5006416;28;19947;-75
2023/07/18 12:08:52;;;;;;;;;;;;;;;;;;4985854;28;19917;-73
2023/07/18 12:11:19;;;;;;;;;;;;;;;;;;5008772;28;20361;-71
2023/07/18 12:13:47;;;;;;;;;;;;;;;;;;5006317;28;19951;-73
2023/07/18 12:16:12;;;;;;;;;;;;;;;;;;4991938;28;20007;-75
2023/07/18 12:18:38;;;;;;;;;;;;;;;;;;5005326;28;20296;-77
2023/07/18 12:21:04;;;;;;;;;;;;;;;;;;4992734;28;19924;-72
2023/07/18 12:23:29;;;;;;;;;;;;;;;;;;5009246;28;19924;-75
2023/07/18 12:25:58;;;;;;;;;;;;;;;;;;5006356;28;20363;-76
2023/07/18 12:28:23;;;;;;;;;;;;;;;;;;4992145;28;19924;-76
2023/07/18 12:30:49;;;;;;;;;;;;;;;;;;5006735;28;21823;-75
2023/07/18 12:33:15;;;;;;;;;;;;;;;;;;4984342;28;19921;-74
2023/07/18 12:35:43;;;;;;;;;;;;;;;;;;5005462;28;19939;-74
2023/07/18 12:38:10;;;;;;;;;;;;;;;;;;5004595;28;19917;-74
2023/07/18 12:40:35;;;;;;;;;;;;;;;;;;4991749;28;19925;-74
2023/07/18 12:43:03;;;;;;;;;;;;;;;;;;5009707;28;19958;-74
2023/07/18 12:45:29;;;;;;;;;;;;;;;;;;5010587;28;19924;-75
2023/07/18 12:47:55;;;;;;;;;;;;;;;;;;5009667;28;19925;-75
2023/07/18 12:50:20;;;;;;;;;;;;;;;;;;5003996;28;19921;-74
2023/07/18 12:52:47;;;;;;;;;;;;;;;;;;5008122;28;20023;-74
2023/07/18 12:55:13;;;;;;;;;;;;;;;;;;4995600;28;20418;-75
2023/07/18 12:57:38;;;;;;;;;;;;;;;;;;5008048;28;19933;-75
2023/07/18 13:00:05;;;;;;;;;;;;;;;;;;5004981;28;19917;-75
2023/07/18 13:02:30;;;;;;;;;;;;;;;;;;5011314;28;20014;-73
2023/07/18 13:04:55;;;;;;;;;;;;;;;;;;4986268;28;20041;-75
2023/07/18 13:07:21;;;;;;;;;;;;;;;;;;4991820;28;19960;-75
2023/07/18 13:09:49;;;;;;;;;;;;;;;;;;5009062;28;20304;-76
2023/07/18 13:12:15;;;;;;;;;;;;;;;;;;4987909;28;19921;-73
2023/07/18 13:14:40;;;;;;;;;;;;;;;;;;5001841;28;20048;-72
2023/07/18 13:17:05;;;;;;;;;;;;;;;;;;5009034;28;19921;-73
2023/07/18 13:19:31;;;;;;;;;;;;;;;;;;5006157;28;19932;-73
2023/07/18 13:21:59;;;;;;;;;;;;;;;;;;5006952;28;19925;-74
2023/07/18 13:24:24;;;;;;;;;;;;;;;;;;5007502;28;19921;-74
2023/07/18 13:26:50;;;;;;;;;;;;;;;;;;4985570;28;20413;-73
2023/07/18 13:29:18;;;;;;;;;;;;;;;;;;5009667;28;20089;-75
2023/07/18 13:31:44;;;;;;;;;;;;;;;;;;5009016;28;20001;-73
2023/07/18 13:34:09;;;;;;;;;;;;;;;;;;5018362;28;19921;-74
2023/07/18 13:36:34;;;;;;;;;;;;;;;;;;5008412;28;19921;-74
2023/07/18 13:39:00;;;;;;;;;;;;;;;;;;5008998;28;19928;-73
2023/07/18 13:41:25;;;;;;;;;;;;;;;;;;5008950;28;20008;-74
2023/07/18 13:43:50;;;;;;;;;;;;;;;;;;5007279;28;19921;-77
2023/07/18 13:46:16;;;;;;;;;;;;;;;;;;5009083;28;19948;-72
2023/07/18 13:48:42;;;;;;;;;;;;;;;;;;5008223;28;19917;-72
2023/07/18 13:51:10;;;;;;;;;;;;;;;;;;4993277;28;19921;-72
2023/07/18 13:53:35;;;;;;;;;;;;;;;;;;5008856;28;19921;-73
2023/07/18 13:56:00;;;;;;;;;;;;;;;;;;5007549;28;19921;-71
2023/07/18 13:58:26;;;;;;;;;;;;;;;;;;5006622;28;19929;-73
2023/07/18 14:00:54;;;;;;;;;;;;;;;;;;5007902;28;19994;-72
2023/07/18 14:03:20;;;;;;;;;;;;;;;;;;5008889;28;20392;-76
2023/07/18 14:05:45;;;;;;;;;;;;;;;;;;4991975;28;19956;-72
2023/07/18 14:08:13;;;;;;;;;;;;;;;;;;5016419;28;19917;-70
2023/07/18 14:10:38;;;;;;;;;;;;;;;;;;5008175;28;19928;-72
2023/07/18 14:13:03;;;;;;;;;;;;;;;;;;5005336;28;19917;-72
2023/07/18 14:15:29;;;;;;;;;;;;;;;;;;4992940;28;19932;-72
2023/07/18 14:17:55;;;;;;;;;;;;;;;;;;5001251;28;20536;-73
2023/07/18 14:20:20;;;;;;;;;;;;;;;;;;4999991;28;19925;-72
2023/07/18 14:22:48;;;;;;;;;;;;;;;;;;5001233;28;19960;-73
2023/07/18 14:25:13;;;;;;;;;;;;;;;;;;5006471;28;20315;-70
2023/07/18 14:27:41;;;;;;;;;;;;;;;;;;5010191;28;20090;-72
2023/07/18 14:30:06;;;;;;;;;;;;;;;;;;4984540;28;20383;-72
2023/07/18 14:32:32;;;;;;;;;;;;;;;;;;5009130;28;20303;-71
2023/07/18 14:35:02;;;;;;;;;;;;;;;;;;5008043;28;20024;-71
2023/07/18 14:37:28;;;;;;;;;;;;;;;;;;5006217;28;19921;-71
2023/07/18 14:39:53;;;;;;;;;;;;;;;;;;5009331;28;19928;-69
2023/07/18 14:42:19;;;;;;;;;;;;;;;;;;5004581;28;19951;-70
2023/07/18 14:44:44;;;;;;;;;;;;;;;;;;5000036;28;19928;-70
2023/07/18 14:47:10;;;;;;;;;;;;;;;;;;5005312;28;19921;-71
2023/07/18 14:49:37;;;;;;;;;;;;;;;;;;5002606;28;19925;-70
2023/07/18 14:52:03;;;;;;;;;;;;;;;;;;4993178;28;19928;-70
2023/07/18 14:54:28;;;;;;;;;;;;;;;;;;5001328;28;19925;-67
2023/07/18 14:56:53;;;;;;;;;;;;;;;;;;5001298;28;20410;-71
2023/07/18 14:59:19;;;;;;;;;;;;;;;;;;5007226;28;19928;-71
2023/07/18 15:01:44;;;;;;;;;;;;;;;;;;5006181;28;19975;-70
2023/07/18 15:04:09;;;;;;;;;;;;;;;;;;4991813;28;20368;-71
2023/07/18 15:06:35;;;;;;;;;;;;;;;;;;5006628;28;19921;-73
2023/07/18 15:09:00;;;;;;;;;;;;;;;;;;5005497;28;19917;-70
2023/07/18 15:11:28;;;;;;;;;;;;;;;;;;5007076;28;19967;-71
2023/07/18 15:13:54;;;;;;;;;;;;;;;;;;4983700;28;19921;-69
2023/07/18 15:16:19;;;;;;;;;;;;;;;;;;5006525;28;19979;-72
2023/07/18 15:18:44;;;;;;;;;;;;;;;;;;5007233;28;20418;-71
2023/07/18 15:21:12;;;;;;;;;;;;;;;;;;5013973;28;19921;-68
2023/07/18 15:23:37;;;;;;;;;;;;;;;;;;5006468;28;19917;-71
2023/07/18 15:26:05;;;;;;;;;;;;;;;;;;5006110;28;19933;-69
2023/07/18 15:28:30;;;;;;;;;;;;;;;;;;5003697;28;20300;-69
2023/07/18 15:31:00;;;;;;;;;;;;;;;;;;5004252;28;20454;-69
2023/07/18 15:33:25;;;;;;;;;;;;;;;;;;5003527;28;19921;-71
2023/07/18 15:35:51;;;;;;;;;;;;;;;;;;5005173;28;20037;-70
2023/07/18 15:38:16;;;;;;;;;;;;;;;;;;5005672;28;20518;-71
2023/07/18 15:40:41;;;;;;;;;;;;;;;;;;4998488;28;19924;-71
2023/07/18 15:43:09;;;;;;;;;;;;;;;;;;5007056;28;19972;-70
2023/07/18 15:45:37;;;;;;;;;;;;;;;;;;5006473;28;19917;-70
2023/07/18 15:48:03;;;;;;;;;;;;;;;;;;5006832;28;20479;-70
2023/07/18 15:50:28;;;;;;;;;;;;;;;;;;5007200;28;20409;-68
2023/07/18 15:52:56;;;;;;;;;;;;;;;;;;4992696;28;20522;-69
2023/07/18 15:55:22;;;;;;;;;;;;;;;;;;5021877;28;19927;-70
2023/07/18 15:57:47;;;;;;;;;;;;;;;;;;4991471;28;20369;-70
2023/07/18 16:00:13;;;;;;;;;;;;;;;;;;5006059;28;19932;-67
2023/07/18 16:02:38;;;;;;;;;;;;;;;;;;4999542;28;19924;-71
2023/07/18 16:05:03;;;;;;;;;;;;;;;;;;5006834;28;19921;-68
2023/07/18 16:07:29;;;;;;;;;;;;;;;;;;4999815;28;19921;-67
2023/07/18 16:09:56;;;;;;;;;;;;;;;;;;4991162;28;20418;-68
2023/07/18 16:12:24;;;;;;;;;;;;;;;;;;5005581;28;19921;-68
2023/07/18 16:14:53;;;;;;;;;;;;;;;;;;4992843;28;19967;-72
2023/07/18 16:17:21;;;;;;;;;;;;;;;;;;5009456;28;20670;-68
2023/07/18 16:19:47;;;;;;;;;;;;;;;;;;5011851;28;19999;-68
2023/07/18 16:22:12;;;;;;;;;;;;;;;;;;5009389;28;19955;-69
2023/07/18 16:24:39;;;;;;;;;;;;;;;;;;5011276;28;20039;-68
2023/07/18 16:27:07;;;;;;;;;;;;;;;;;;4993544;28;19921;-69
2023/07/18 16:29:32;;;;;;;;;;;;;;;;;;5009102;28;19971;-67
2023/07/18 16:31:57;;;;;;;;;;;;;;;;;;4996898;28;20178;-69
2023/07/18 16:34:23;;;;;;;;;;;;;;;;;;5003912;28;20067;-68
2023/07/18 16:36:51;;;;;;;;;;;;;;;;;;5009193;28;19921;-68
2023/07/18 16:39:21;;;;;;;;;;;;;;;;;;5008607;28;19952;-67